createdAt,value
2022-09-20T00:01:28.170Z,95205.97
2022-09-20T00:03:57.648Z,95207.84
2022-09-20T00:06:27.481Z,95204.59
2022-09-20T00:08:54.397Z,95208.31
2022-09-20T00:11:29.265Z,95201.38
2022-09-20T00:13:58.246Z,95205.66
2022-09-20T00:16:32.250Z,95207.50
2022-09-20T00:19:01.034Z,95206.69
2022-09-20T00:21:29.750Z,95215.72
2022-09-20T00:24:00.023Z,95200.56
2022-09-20T00:26:27.663Z,95209.59
2022-09-20T00:28:55.011Z,95199.75
2022-09-20T00:31:21.921Z,95194.69
2022-09-20T00:34:07.306Z,95196.78
2022-09-20T00:36:33.791Z,95197.59
2022-09-20T00:39:02.226Z,95192.94
2022-09-20T00:41:30.680Z,95198.63
2022-09-20T00:43:58.097Z,95187.16
2022-09-20T00:46:30.364Z,95187.63
2022-09-20T00:49:06.296Z,95188.34
2022-09-20T00:51:38.742Z,95185.78
2022-09-20T00:54:08.779Z,95183.69
2022-09-20T00:56:40.852Z,95179.56
2022-09-20T00:59:21.604Z,95181.50
2022-09-20T01:01:56.642Z,95170.88
2022-09-20T01:04:27.083Z,95179.09
2022-09-20T01:06:56.267Z,95177.16
2022-09-20T01:09:22.660Z,95175.63
2022-09-20T01:11:52.065Z,95177.72
2022-09-20T01:14:20.133Z,95170.78
2022-09-20T01:16:46.697Z,95166.75
2022-09-20T01:19:31.650Z,95165.47
2022-09-20T01:21:58.303Z,95165.16
2022-09-20T01:24:38.704Z,95176.91
2022-09-20T01:27:14.539Z,95163.53
2022-09-20T01:30:13.228Z,95170.47
2022-09-20T01:33:00.315Z,95166.44
2022-09-20T01:35:28.769Z,95154.41
2022-09-20T01:38:29.865Z,95153.34
2022-09-20T01:40:56.225Z,95153.03
2022-09-20T01:43:37.221Z,95155.69
2022-09-20T01:46:21.821Z,95156.25
2022-09-20T01:48:50.174Z,95162.63
2022-09-20T01:51:34.351Z,95162.84
2022-09-20T01:54:16.767Z,95155.34
2022-09-20T01:56:55.057Z,95157.53
2022-09-20T01:59:33.726Z,95164.13
2022-09-20T02:02:09.098Z,95154.47
2022-09-20T02:04:58.879Z,95155.84
2022-09-20T02:08:00.865Z,95157.91
2022-09-20T02:10:41.564Z,95164.28
2022-09-20T02:13:31.680Z,95159.78
2022-09-20T02:16:05.165Z,95157.81
2022-09-20T02:18:52.927Z,95160.25
2022-09-20T02:21:31.477Z,95165.56
2022-09-20T02:24:22.211Z,95159.66
2022-09-20T02:27:22.312Z,95161.75
2022-09-20T02:29:57.157Z,95161.81
2022-09-20T02:32:38.469Z,95155.31
2022-09-20T02:35:39.029Z,95162.13
2022-09-20T02:38:31.057Z,95162.47
2022-09-20T02:41:11.431Z,95160.28
2022-09-20T02:43:51.134Z,95158.09
2022-09-20T02:46:28.721Z,95158.69
2022-09-20T02:49:09.819Z,95157.53
2022-09-20T02:51:42.739Z,95166.31
2022-09-20T02:54:42.643Z,95169.28
2022-09-20T02:57:21.349Z,95174.75
2022-09-20T02:59:59.715Z,95169.66
2022-09-20T03:02:28.988Z,95168.41
2022-09-20T03:05:30.570Z,95175.22
2022-09-20T03:08:30.009Z,95177.88
2022-09-20T03:11:15.099Z,95181.34
2022-09-20T03:14:06.773Z,95180.53
2022-09-20T03:17:10.570Z,95176.50
2022-09-20T03:19:40.131Z,95182.03
2022-09-20T03:22:19.564Z,95176.88
2022-09-20T03:25:04.788Z,95181.47
2022-09-20T03:27:55.763Z,95182.28
2022-09-20T03:30:59.666Z,95187.00
2022-09-20T03:33:41.581Z,95182.97
2022-09-20T03:36:23.197Z,95185.63
2022-09-20T03:39:21.511Z,95181.59
2022-09-20T03:41:56.148Z,95185.06
2022-09-20T03:44:48.007Z,95186.91
2022-09-20T03:48:08.593Z,95186.34
2022-09-20T03:50:56.134Z,95190.38
2022-09-20T03:54:07.165Z,95196.16
2022-09-20T03:56:49.363Z,95190.03
2022-09-20T03:59:39.043Z,95189.47
2022-09-20T04:02:33.878Z,95184.97
2022-09-20T04:05:29.406Z,95183.00
2022-09-20T04:08:16.316Z,95191.78
2022-09-20T04:10:59.616Z,95186.69
2022-09-20T04:13:32.134Z,95183.81
2022-09-20T04:16:23.388Z,95183.81
2022-09-20T04:18:57.728Z,95184.41
2022-09-20T04:21:36.280Z,95176.88
2022-09-20T04:24:10.834Z,95189.00
2022-09-20T04:26:44.201Z,95187.50
2022-09-20T04:29:36.408Z,95178.97
2022-09-20T04:32:13.943Z,95183.81
2022-09-20T04:35:12.714Z,95177.44
2022-09-20T04:37:42.557Z,95183.72
2022-09-20T04:40:33.797Z,95180.69
2022-09-20T04:43:15.405Z,95187.03
2022-09-20T04:45:51.486Z,95186.56
2022-09-20T04:48:42.737Z,95186.00
2022-09-20T04:51:23.300Z,95186.47
2022-09-20T04:53:55.690Z,95186.69
2022-09-20T04:56:47.104Z,95192.22
2022-09-20T04:59:22.212Z,95195.69
2022-09-20T05:02:26.134Z,95195.91
2022-09-20T05:05:24.640Z,95198.56
2022-09-20T05:08:56.694Z,95196.16
2022-09-20T05:11:37.263Z,95190.28
2022-09-20T05:14:41.818Z,95193.28
2022-09-20T05:17:41.762Z,95191.88
2022-09-20T05:20:10.886Z,95193.72
2022-09-20T05:22:58.716Z,95192.94
2022-09-20T05:25:46.731Z,95190.75
2022-09-20T05:28:16.472Z,95189.94
2022-09-20T05:30:49.674Z,95193.38
2022-09-20T05:33:33.843Z,95194.44
2022-09-20T05:36:14.175Z,95185.66
2022-09-20T05:39:03.525Z,95196.84
2022-09-20T05:41:39.175Z,95205.03
2022-09-20T05:44:24.505Z,95199.75
2022-09-20T05:47:18.282Z,95204.25
2022-09-20T05:50:03.480Z,95199.75
2022-09-20T05:52:54.563Z,95203.88
2022-09-20T05:55:50.196Z,95208.97
2022-09-20T05:58:45.516Z,95205.97
2022-09-20T06:01:23.260Z,95210.00
2022-09-20T06:04:00.728Z,95205.97
2022-09-20T06:06:38.486Z,95215.66
2022-09-20T06:09:26.906Z,95217.38
2022-09-20T06:12:05.922Z,95220.38
2022-09-20T06:15:00.088Z,95213.13
2022-09-20T06:17:43.802Z,95225.34
2022-09-20T06:20:29.521Z,95218.78
2022-09-20T06:23:00.111Z,95232.28
2022-09-20T06:25:57.196Z,95233.75
2022-09-20T06:28:30.681Z,95242.81
2022-09-20T06:30:57.393Z,95243.59
2022-09-20T06:33:28.909Z,95233.41
2022-09-20T06:36:25.822Z,95242.31
2022-09-20T06:39:32.452Z,95243.47
2022-09-20T06:42:00.756Z,95243.00
2022-09-20T06:44:27.223Z,95244.03
2022-09-20T06:46:54.294Z,95246.91
2022-09-20T06:49:21.896Z,95244.50
2022-09-20T06:51:50.705Z,95236.75
2022-09-20T06:54:19.999Z,95243.47
2022-09-20T06:56:49.396Z,95238.72
2022-09-20T06:59:15.794Z,95242.19
2022-09-20T07:01:42.878Z,95237.56
2022-09-20T07:04:09.700Z,95237.47
2022-09-20T07:06:36.389Z,95238.84
2022-09-20T07:09:03.071Z,95233.88
2022-09-20T07:11:29.875Z,95235.91
2022-09-20T07:13:58.224Z,95235.25
2022-09-20T07:16:26.336Z,95238.16
2022-09-20T07:18:53.370Z,95237.94
2022-09-20T07:21:21.214Z,95231.91
2022-09-20T07:23:51.140Z,95234.00
2022-09-20T07:26:23.499Z,95240.81
2022-09-20T07:28:50.483Z,95236.31
2022-09-20T07:31:18.909Z,95240.00
2022-09-20T07:33:45.419Z,95241.38
2022-09-20T07:36:12.390Z,95244.63
2022-09-20T07:38:39.996Z,95240.91
2022-09-20T07:41:06.936Z,95245.41
2022-09-20T07:43:33.651Z,95239.06
2022-09-20T07:46:00.165Z,95237.13
2022-09-20T07:48:30.768Z,95237.09
2022-09-20T07:51:04.722Z,95242.19
2022-09-20T07:53:35.100Z,95246.22
2022-09-20T07:56:09.929Z,95250.38
2022-09-20T07:58:36.744Z,95243.13
2022-09-20T08:01:07.354Z,95250.72
2022-09-20T08:03:34.946Z,95244.50
2022-09-20T08:06:03.340Z,95244.03
2022-09-20T08:08:32.889Z,95247.03
2022-09-20T08:11:15.469Z,95248.13
2022-09-20T08:16:39.354Z,95241.59
2022-09-20T08:19:06.350Z,95246.91
2022-09-20T08:21:34.148Z,95251.81
2022-09-20T08:24:01.373Z,95242.03
2022-09-20T08:26:29.365Z,95245.06
2022-09-20T08:28:57.990Z,95251.63
2022-09-20T08:31:27.057Z,95249.44
2022-09-20T08:33:54.655Z,95253.03
2022-09-20T08:36:25.724Z,95246.13
2022-09-20T08:41:47.053Z,95260.53
2022-09-20T08:44:18.945Z,95256.03
2022-09-20T08:46:50.002Z,95252.81
2022-09-20T08:49:27.240Z,95258.09
2022-09-20T08:51:57.399Z,95251.16
2022-09-20T08:54:25.036Z,95250.97
2022-09-20T08:56:52.323Z,95254.66
2022-09-20T08:59:21.245Z,95260.31
2022-09-20T09:01:49.905Z,95260.19
2022-09-20T09:04:19.991Z,95253.16
2022-09-20T09:06:46.726Z,95251.09
2022-09-20T09:09:23.116Z,95244.97
2022-09-20T09:11:50.511Z,95238.25
2022-09-20T09:14:42.057Z,95247.44
2022-09-20T09:17:12.858Z,95253.19
2022-09-20T09:19:52.340Z,95254.28
2022-09-20T09:22:29.174Z,95248.22
2022-09-20T09:25:14.584Z,95250.03
2022-09-20T09:28:00.793Z,95256.28
2022-09-20T09:30:34.217Z,95252.56
2022-09-20T09:33:34.079Z,95245.88
2022-09-20T09:36:08.776Z,95242.63
2022-09-20T09:38:37.894Z,95249.44
2022-09-20T09:41:29.806Z,95251.41
2022-09-20T09:44:29.291Z,95249.81
2022-09-20T09:46:57.310Z,95247.03
2022-09-20T09:49:34.146Z,95249.69
2022-09-20T09:52:17.748Z,95251.75
2022-09-20T09:54:50.550Z,95246.91
2022-09-20T09:57:58.438Z,95255.13
2022-09-20T10:00:27.249Z,95244.19
2022-09-20T10:03:30.276Z,95239.75
2022-09-20T10:06:04.497Z,95248.88
2022-09-20T10:08:37.332Z,95238.25
2022-09-20T10:11:10.199Z,95235.13
2022-09-20T10:13:53.210Z,95229.63
2022-09-20T10:16:37.590Z,95233.44
2022-09-20T10:19:13.022Z,95227.19
2022-09-20T10:21:52.391Z,95229.84
2022-09-20T10:24:30.574Z,95243.25
2022-09-20T10:27:30.327Z,95242.66
2022-09-20T10:30:08.801Z,95249.34
2022-09-20T10:32:56.677Z,95251.66
2022-09-20T10:35:37.182Z,95250.25
2022-09-20T10:38:14.314Z,95246.91
2022-09-20T10:41:12.066Z,95253.38
2022-09-20T10:44:05.147Z,95255.81
2022-09-20T10:47:07.194Z,95254.06
2022-09-20T10:50:00.940Z,95258.03
2022-09-20T10:52:34.329Z,95256.41
2022-09-20T10:55:33.460Z,95265.06
2022-09-20T10:58:14.904Z,95254.78
2022-09-20T11:00:53.867Z,95264.59
2022-09-20T11:03:48.219Z,95267.97
2022-09-20T11:06:37.735Z,95258.84
2022-09-20T11:09:13.824Z,95261.47
2022-09-20T11:11:46.256Z,95262.41
2022-09-20T11:14:19.332Z,95267.00
2022-09-20T11:16:45.819Z,95272.53
2022-09-20T11:19:28.560Z,95284.75
2022-09-20T11:22:27.399Z,95278.97
2022-09-20T11:25:02.912Z,95280.59
2022-09-20T11:27:47.523Z,95275.88
2022-09-20T11:30:20.108Z,95283.38
2022-09-20T11:32:53.126Z,95281.09
2022-09-20T11:35:40.364Z,95284.09
2022-09-20T11:38:43.822Z,95285.25
2022-09-20T11:41:25.787Z,95286.28
2022-09-20T11:43:55.684Z,95286.41
2022-09-20T11:46:27.649Z,95288.34
2022-09-20T11:49:16.137Z,95286.97
2022-09-20T11:52:01.382Z,95281.44
2022-09-20T11:54:41.462Z,95283.28
2022-09-20T11:57:14.102Z,95283.28
2022-09-20T11:59:42.934Z,95279.81
2022-09-20T12:02:48.494Z,95273.69
2022-09-20T12:05:33.876Z,95272.22
2022-09-20T12:08:04.129Z,95263.34
2022-09-20T12:10:37.380Z,95268.16
2022-09-20T12:13:07.223Z,95263.44
2022-09-20T12:15:39.484Z,95261.91
2022-09-20T12:18:33.074Z,95268.25
2022-09-20T12:21:00.861Z,95259.25
2022-09-20T12:23:40.346Z,95254.75
2022-09-20T12:26:20.796Z,95259.38
2022-09-20T12:28:53.115Z,95253.16
2022-09-20T12:31:22.653Z,95259.97
2022-09-20T12:34:12.168Z,95257.13
2022-09-20T12:36:44.480Z,95251.88
2022-09-20T12:39:19.097Z,95250.31
2022-09-20T12:41:48.245Z,95258.06
2022-09-20T12:44:55.203Z,95250.38
2022-09-20T12:47:28.527Z,95252.13
2022-09-20T12:50:16.517Z,95252.22
2022-09-20T12:52:58.599Z,95245.78
2022-09-20T12:56:09.659Z,95253.59
2022-09-20T12:58:39.820Z,95255.63
2022-09-20T13:01:08.492Z,95247.69
2022-09-20T13:03:41.314Z,95254.53
2022-09-20T13:06:17.743Z,95241.28
2022-09-20T13:08:53.612Z,95244.03
2022-09-20T13:11:38.485Z,95245.88
2022-09-20T13:14:08.209Z,95247.28
2022-09-20T13:16:37.400Z,95240.69
2022-09-20T13:19:06.753Z,95243.22
2022-09-20T13:21:40.632Z,95251.63
2022-09-20T13:24:12.017Z,95256.13
2022-09-20T13:26:45.995Z,95252.34
2022-09-20T13:29:24.601Z,95247.25
2022-09-20T13:31:51.067Z,95245.81
2022-09-20T13:34:25.749Z,95246.19
2022-09-20T13:36:58.356Z,95249.59
2022-09-20T13:39:36.148Z,95241.25
2022-09-20T13:42:09.073Z,95244.41
2022-09-20T13:44:37.270Z,95247.31
2022-09-20T13:47:21.813Z,95242.78
2022-09-20T13:49:48.336Z,95243.47
2022-09-20T13:52:30.595Z,95240.34
2022-09-20T13:54:57.368Z,95247.38
2022-09-20T13:57:30.016Z,95242.88
2022-09-20T13:59:58.031Z,95254.31
2022-09-20T14:02:29.882Z,95242.50
2022-09-20T14:05:00.582Z,95242.41
2022-09-20T14:07:29.506Z,95238.81
2022-09-20T14:09:58.131Z,95238.00
2022-09-20T14:12:25.762Z,95238.59
2022-09-20T14:14:53.608Z,95240.19
2022-09-20T14:17:24.330Z,95238.25
2022-09-20T14:19:54.472Z,95230.63
2022-09-20T14:22:28.318Z,95232.47
2022-09-20T14:25:04.682Z,95232.13
2022-09-20T14:27:31.509Z,95240.56
2022-09-20T14:29:58.775Z,95250.84
2022-09-20T14:32:37.448Z,95246.88
2022-09-20T14:35:06.744Z,95241.97
2022-09-20T14:37:52.992Z,95237.47
2022-09-20T14:40:22.193Z,95244.88
2022-09-20T14:43:01.455Z,95250.72
2022-09-20T14:45:35.212Z,95254.84
2022-09-20T14:48:09.553Z,95248.59
2022-09-20T14:50:45.527Z,95252.34
2022-09-20T14:53:12.327Z,95251.56
2022-09-20T14:55:58.731Z,95253.16
2022-09-20T14:58:26.280Z,95252.22
2022-09-20T15:01:06.335Z,95250.38
2022-09-20T15:03:41.353Z,95253.84
2022-09-20T15:06:12.825Z,95237.56
2022-09-20T15:08:44.134Z,95256.84
2022-09-20T15:11:17.545Z,95245.66
2022-09-20T15:13:44.292Z,95246.13
2022-09-20T15:16:13.410Z,95250.25
2022-09-20T15:18:42.352Z,95255.34
2022-09-20T15:21:10.804Z,95251.41
2022-09-20T15:23:39.352Z,95251.75
2022-09-20T15:26:07.064Z,95257.78
2022-09-20T15:28:33.679Z,95258.72
2022-09-20T15:31:00.255Z,95265.16
2022-09-20T15:33:30.662Z,95265.47
2022-09-20T15:35:57.349Z,95272.91
2022-09-20T15:38:26.812Z,95257.19
2022-09-20T15:40:53.952Z,95267.69
2022-09-20T15:43:24.179Z,95259.81
2022-09-20T15:45:56.533Z,95261.22
2022-09-20T15:48:26.069Z,95256.13
2022-09-20T15:51:02.898Z,95263.84
2022-09-20T15:53:34.466Z,95259.13
2022-09-20T15:56:04.301Z,95266.06
2022-09-20T15:58:36.547Z,95266.06
2022-09-20T16:01:08.325Z,95264.44
2022-09-20T16:03:36.146Z,95271.94
2022-09-20T16:06:05.056Z,95273.78
2022-09-20T16:08:37.338Z,95265.00
2022-09-20T16:11:05.921Z,95273.78
2022-09-20T16:13:32.396Z,95271.13
2022-09-20T16:16:02.162Z,95274.34
2022-09-20T16:18:47.971Z,95278.63
2022-09-20T16:21:16.861Z,95285.56
2022-09-20T16:23:48.596Z,95282.91
2022-09-20T16:26:15.208Z,95287.63
2022-09-20T16:28:47.251Z,95290.63
2022-09-20T16:31:35.985Z,95287.16
2022-09-20T16:34:05.339Z,95289.81
2022-09-20T16:36:32.879Z,95297.00
2022-09-20T16:38:59.872Z,95301.72
2022-09-20T16:41:28.336Z,95300.69
2022-09-20T16:43:55.329Z,95301.25
2022-09-20T16:46:27.058Z,95297.78
2022-09-20T16:48:55.594Z,95301.84
2022-09-20T16:51:25.032Z,95307.38
2022-09-20T16:53:54.508Z,95300.69
2022-09-20T16:56:26.298Z,95296.75
2022-09-20T16:58:53.839Z,95297.56
2022-09-20T17:01:20.407Z,95298.84
2022-09-20T17:03:47.610Z,95313.50
2022-09-20T17:06:16.409Z,95309.47
2022-09-20T17:08:44.838Z,95308.66
2022-09-20T17:11:19.185Z,95317.78
2022-09-20T17:13:45.692Z,95318.56
2022-09-20T17:16:14.809Z,95328.41
2022-09-20T17:18:43.189Z,95325.75
2022-09-20T17:21:14.855Z,95324.34
2022-09-20T17:23:45.545Z,95326.53
2022-09-20T17:26:17.705Z,95335.31
2022-09-20T17:28:51.326Z,95341.69
2022-09-20T17:31:21.046Z,95341.44
2022-09-20T17:33:47.791Z,95340.28
2022-09-20T17:36:21.439Z,95342.16
2022-09-20T17:38:54.786Z,95343.53
2022-09-20T17:41:22.592Z,95344.81
2022-09-20T17:43:53.471Z,95336.59
2022-09-20T17:46:25.877Z,95344.81
2022-09-20T17:48:55.554Z,95345.59
2022-09-20T17:51:26.547Z,95350.09
2022-09-20T17:53:53.301Z,95349.88
2022-09-20T17:56:23.179Z,95359.94
2022-09-20T17:58:50.056Z,95357.28
2022-09-20T18:01:18.757Z,95366.63
2022-09-20T18:03:46.645Z,95365.25
2022-09-20T18:06:20.941Z,95369.84
2022-09-20T18:08:49.588Z,95365.25
2022-09-20T18:11:18.042Z,95374.59
2022-09-20T18:13:44.795Z,95378.88
2022-09-20T18:16:12.440Z,95379.91
2022-09-20T18:18:40.887Z,95379.69
2022-09-20T18:21:12.294Z,95384.19
2022-09-20T18:23:38.736Z,95382.34
2022-09-20T18:26:21.936Z,95389.50
2022-09-20T18:29:03.031Z,95386.84
2022-09-20T18:31:36.169Z,95395.38
2022-09-20T18:34:07.758Z,95392.38
2022-09-20T18:36:36.372Z,95392.38
2022-09-20T18:39:03.702Z,95398.28
2022-09-20T18:41:33.181Z,95406.81
2022-09-20T18:44:01.437Z,95408.31
2022-09-20T18:46:30.519Z,95410.50
2022-09-20T18:49:01.357Z,95412.34
2022-09-20T18:51:33.807Z,95411.78
2022-09-20T18:54:02.345Z,95412.34
2022-09-20T18:56:36.023Z,95407.50
2022-09-20T18:59:08.472Z,95411.31
2022-09-20T19:01:50.431Z,95418.47
2022-09-20T19:04:45.102Z,95423.00
2022-09-20T19:07:23.797Z,95429.09
2022-09-20T19:10:05.498Z,95436.25
2022-09-20T19:12:46.187Z,95434.41
2022-09-20T19:15:31.034Z,95431.19
2022-09-20T19:18:23.899Z,95438.13
2022-09-20T19:21:09.327Z,95444.25
2022-09-20T19:24:02.484Z,95444.25
2022-09-20T19:26:31.733Z,95439.16
2022-09-20T19:29:00.151Z,95440.78
2022-09-20T19:31:28.522Z,95441.81
2022-09-20T19:33:57.381Z,95443.09
2022-09-20T19:36:26.465Z,95448.75
2022-09-20T19:39:07.752Z,95452.44
2022-09-20T19:41:58.099Z,95451.41
2022-09-20T19:44:51.316Z,95453.25
2022-09-20T19:47:46.494Z,95463.06
2022-09-20T19:50:36.060Z,95457.75
2022-09-20T19:53:04.135Z,95458.78
2022-09-20T19:55:32.360Z,95475.53
2022-09-20T19:57:59.441Z,95473.91
2022-09-20T20:00:26.191Z,95462.94
2022-09-20T20:02:53.855Z,95468.84
2022-09-20T20:05:25.616Z,95466.19
2022-09-20T20:08:07.896Z,95466.63
2022-09-20T20:10:49.733Z,95468.84
2022-09-20T20:14:00.754Z,95470.44
2022-09-20T20:16:37.063Z,95478.66
2022-09-20T20:19:31.042Z,95478.06
2022-09-20T20:22:31.319Z,95479.69
2022-09-20T20:24:57.852Z,95487.66
2022-09-20T20:27:28.174Z,95482.56
2022-09-20T20:29:55.500Z,95482.56
2022-09-20T20:32:21.991Z,95478.28
2022-09-20T20:34:48.519Z,95487.88
2022-09-20T20:37:15.742Z,95491.56
2022-09-20T20:39:42.080Z,95487.06
2022-09-20T20:42:09.962Z,95483.63
2022-09-20T20:44:36.361Z,95485.09
2022-09-20T20:47:04.430Z,95487.31
2022-09-20T20:49:30.980Z,95494.69
2022-09-20T20:51:58.524Z,95491.00
2022-09-20T20:54:25.357Z,95491.47
2022-09-20T20:56:51.790Z,95496.31
2022-09-20T20:59:18.138Z,95488.00
2022-09-20T21:01:47.271Z,95489.03
2022-09-20T21:04:15.620Z,95501.28
2022-09-20T21:06:42.459Z,95504.50
2022-09-20T21:09:10.596Z,95510.84
2022-09-20T21:11:40.243Z,95500.91
2022-09-20T21:14:07.343Z,95510.50
2022-09-20T21:16:36.196Z,95505.19
2022-09-20T21:19:04.184Z,95506.22
2022-09-20T21:21:36.130Z,95510.50
2022-09-20T21:24:05.485Z,95513.97
2022-09-20T21:26:34.101Z,95512.56
2022-09-20T21:29:02.836Z,95510.97
2022-09-20T21:31:34.027Z,95507.72
2022-09-20T21:34:00.875Z,95510.38
2022-09-20T21:36:29.376Z,95512.44
2022-09-20T21:38:56.368Z,95506.09
2022-09-20T21:41:30.157Z,95507.72
2022-09-20T21:44:00.032Z,95504.84
2022-09-20T21:46:35.713Z,95506.09
2022-09-20T21:49:05.125Z,95506.09
2022-09-20T21:51:32.763Z,95502.06
2022-09-20T21:54:01.685Z,95505.53
2022-09-20T21:56:33.594Z,95504.94
2022-09-20T21:59:02.487Z,95503.66
2022-09-20T22:01:33.509Z,95498.81
2022-09-20T22:04:00.910Z,95504.94
2022-09-20T22:06:33.064Z,95503.78
2022-09-20T22:09:06.056Z,95507.59
2022-09-20T22:11:35.948Z,95507.25
2022-09-20T22:14:02.414Z,95505.03
2022-09-20T22:16:31.157Z,95513.34
2022-09-20T22:18:59.684Z,95509.88
2022-09-20T22:21:32.172Z,95508.63
2022-09-20T22:24:01.431Z,95507.00
2022-09-20T22:26:34.135Z,95501.34
2022-09-20T22:29:00.550Z,95508.50
2022-09-20T22:31:29.696Z,95496.84
2022-09-20T22:33:58.379Z,95500.53
2022-09-20T22:36:30.056Z,95497.28
2022-09-20T22:38:56.936Z,95493.84
2022-09-20T22:41:24.256Z,95496.50
2022-09-20T22:43:50.626Z,95486.69
2022-09-20T22:46:19.571Z,95492.56
2022-09-20T22:48:46.874Z,95495.69
2022-09-20T22:51:22.567Z,95492.22
2022-09-20T22:53:49.776Z,95486.53
2022-09-20T22:56:28.839Z,95499.38
2022-09-20T22:59:05.128Z,95494.28
2022-09-20T23:01:37.432Z,95493.25
2022-09-20T23:04:07.751Z,95496.13
2022-09-20T23:06:40.446Z,95497.97
2022-09-20T23:09:09.903Z,95497.16
2022-09-20T23:11:37.678Z,95496.34
2022-09-20T23:14:05.898Z,95501.09
2022-09-20T23:16:35.245Z,95498.31
2022-09-20T23:19:03.516Z,95494.59
2022-09-20T23:21:30.075Z,95498.31
2022-09-20T23:23:59.063Z,95498.06
2022-09-20T23:26:27.020Z,95490.56
2022-09-20T23:28:55.994Z,95491.50
2022-09-20T23:31:23.118Z,95492.91
2022-09-20T23:33:55.186Z,95482.16
2022-09-20T23:36:22.467Z,95493.34
2022-09-20T23:38:49.469Z,95485.59
2022-09-20T23:41:18.260Z,95485.44
2022-09-20T23:43:45.014Z,95484.44
2022-09-20T23:46:12.794Z,95486.47
2022-09-20T23:48:41.809Z,95480.97
2022-09-20T23:51:13.112Z,95480.13
2022-09-20T23:53:40.124Z,95481.56
2022-09-20T23:56:07.336Z,95488.25
2022-09-20T23:58:36.306Z,95489.13
